createdAt,value
2019-06-26T00:00:49.784Z,25.10
2019-06-26T00:03:18.341Z,25.00
2019-06-26T00:05:46.972Z,25.00
2019-06-26T00:08:15.544Z,25.00
2019-06-26T00:10:44.166Z,24.90
2019-06-26T00:13:25.831Z,24.90
2019-06-26T00:15:42.999Z,24.80
2019-06-26T00:18:11.582Z,24.80
2019-06-26T00:20:40.153Z,24.80
2019-06-26T00:23:08.716Z,24.70
2019-06-26T00:25:37.284Z,24.60
2019-06-26T00:28:05.876Z,24.60
2019-06-26T00:30:34.429Z,24.60
2019-06-26T00:33:03.031Z,24.50
2019-06-26T00:35:31.573Z,24.50
2019-06-26T00:38:00.170Z,24.50
2019-06-26T00:40:28.893Z,24.50
2019-06-26T00:42:57.558Z,24.50
2019-06-26T00:45:26.189Z,24.50
2019-06-26T00:47:54.808Z,24.40
2019-06-26T00:50:23.413Z,24.30
2019-06-26T00:52:51.955Z,24.30
2019-06-26T00:55:20.535Z,24.20
2019-06-26T00:57:49.098Z,24.20
2019-06-26T01:00:17.850Z,24.10
2019-06-26T01:02:46.427Z,24.10
2019-06-26T01:05:15.056Z,24.00
2019-06-26T01:07:43.637Z,23.90
2019-06-26T01:10:14.142Z,23.90
2019-06-26T01:12:42.766Z,23.90
2019-06-26T01:15:11.850Z,23.90
2019-06-26T01:17:40.399Z,23.80
2019-06-26T01:20:09.536Z,23.80
2019-06-26T01:22:38.068Z,23.80
2019-06-26T01:25:06.804Z,23.80
2019-06-26T01:27:35.295Z,23.80
2019-06-26T01:30:05.596Z,23.70
2019-06-26T01:32:34.260Z,23.70
2019-06-26T01:35:03.295Z,23.70
2019-06-26T01:37:31.932Z,23.60
2019-06-26T01:40:00.437Z,23.60
2019-06-26T01:42:29.019Z,23.50
2019-06-26T01:44:57.681Z,23.50
2019-06-26T01:47:26.246Z,23.50
2019-06-26T01:49:54.818Z,23.50
2019-06-26T01:52:23.389Z,23.50
2019-06-26T01:54:51.947Z,23.50
2019-06-26T01:57:20.533Z,23.50
2019-06-26T01:59:49.092Z,23.60
2019-06-26T02:02:17.674Z,23.60
2019-06-26T02:04:46.234Z,23.50
2019-06-26T02:07:14.816Z,23.40
2019-06-26T02:09:43.456Z,23.40
2019-06-26T02:12:12.016Z,23.40
2019-06-26T02:14:40.578Z,23.40
2019-06-26T02:17:09.138Z,23.40
2019-06-26T02:19:37.713Z,23.40
2019-06-26T02:22:06.276Z,23.40
2019-06-26T02:24:34.853Z,23.40
2019-06-26T02:27:03.431Z,23.30
2019-06-26T02:29:32.001Z,23.20
2019-06-26T02:32:00.691Z,23.20
2019-06-26T02:34:29.285Z,23.10
2019-06-26T02:36:57.833Z,23.10
2019-06-26T02:39:26.331Z,23.10
2019-06-26T02:41:54.868Z,23.00
2019-06-26T02:44:23.425Z,23.00
2019-06-26T02:46:51.998Z,22.90
2019-06-26T02:49:20.570Z,23.00
2019-06-26T02:51:49.197Z,22.90
2019-06-26T02:54:17.761Z,22.90
2019-06-26T02:56:46.320Z,23.00
2019-06-26T02:59:14.911Z,22.80
2019-06-26T03:01:43.836Z,22.80
2019-06-26T03:04:12.431Z,22.80
2019-06-26T03:06:40.985Z,22.70
2019-06-26T03:09:09.561Z,22.70
2019-06-26T03:11:38.134Z,22.70
2019-06-26T03:14:06.771Z,22.70
2019-06-26T03:16:35.330Z,22.80
2019-06-26T03:19:03.971Z,22.80
2019-06-26T03:21:32.525Z,22.70
2019-06-26T03:24:01.096Z,22.80
2019-06-26T03:26:29.663Z,22.70
2019-06-26T03:28:58.256Z,22.80
2019-06-26T03:31:27.016Z,22.90
2019-06-26T03:33:55.604Z,22.90
2019-06-26T03:36:24.187Z,23.00
2019-06-26T03:38:52.777Z,23.10
2019-06-26T03:41:21.345Z,23.20
2019-06-26T03:43:49.941Z,23.30
2019-06-26T03:46:18.499Z,23.30
2019-06-26T03:48:47.057Z,23.30
2019-06-26T03:51:15.571Z,23.30
2019-06-26T03:53:44.151Z,23.50
2019-06-26T03:56:12.730Z,23.90
2019-06-26T03:58:41.314Z,23.90
2019-06-26T04:01:10.027Z,24.00
2019-06-26T04:03:38.580Z,24.10
2019-06-26T04:06:07.166Z,24.40
2019-06-26T04:08:35.738Z,24.30
2019-06-26T04:11:04.326Z,24.50
2019-06-26T04:13:32.875Z,24.60
2019-06-26T04:16:01.955Z,24.60
2019-06-26T04:18:30.608Z,24.70
2019-06-26T04:20:59.230Z,24.90
2019-06-26T04:23:27.846Z,24.90
2019-06-26T04:25:56.403Z,24.90
2019-06-26T04:28:24.973Z,24.90
2019-06-26T04:30:53.516Z,25.20
2019-06-26T04:33:22.067Z,25.20
2019-06-26T04:35:50.634Z,25.30
2019-06-26T04:38:19.191Z,25.30
2019-06-26T04:40:47.794Z,25.70
2019-06-26T04:43:16.339Z,25.50
2019-06-26T04:45:57.627Z,25.60
2019-06-26T04:48:15.090Z,25.80
2019-06-26T04:50:43.604Z,26.30
2019-06-26T04:53:12.161Z,26.10
2019-06-26T04:55:40.733Z,26.00
2019-06-26T04:58:09.278Z,26.30
2019-06-26T05:00:37.862Z,26.40
2019-06-26T05:03:06.467Z,27.00
2019-06-26T05:05:39.442Z,27.40
2019-06-26T05:08:05.213Z,27.40
2019-06-26T05:10:33.737Z,28.10
2019-06-26T05:13:02.276Z,28.40
2019-06-26T05:15:30.863Z,28.80
2019-06-26T05:17:59.428Z,28.40
2019-06-26T05:20:27.941Z,28.30
2019-06-26T05:22:56.496Z,28.60
2019-06-26T05:25:24.957Z,28.80
2019-06-26T05:27:53.416Z,28.60
2019-06-26T05:30:22.034Z,28.80
2019-06-26T05:32:50.505Z,28.50
2019-06-26T05:35:19.072Z,28.40
2019-06-26T05:37:47.601Z,28.70
2019-06-26T05:40:16.259Z,28.80
2019-06-26T05:42:44.728Z,29.20
2019-06-26T05:45:13.622Z,30.30
2019-06-26T05:47:42.094Z,29.90
2019-06-26T05:50:12.513Z,29.70
2019-06-26T05:52:43.018Z,29.90
2019-06-26T05:55:12.297Z,29.80
2019-06-26T05:57:42.034Z,30.10
2019-06-26T06:00:12.284Z,29.90
2019-06-26T06:02:40.737Z,30.40
2019-06-26T06:05:09.914Z,31.00
2019-06-26T06:07:38.568Z,31.40
2019-06-26T06:10:07.602Z,31.70
2019-06-26T06:12:36.106Z,32.00
2019-06-26T06:15:06.922Z,32.30
2019-06-26T06:17:35.659Z,32.50
2019-06-26T06:20:06.420Z,33.50
2019-06-26T06:22:35.019Z,32.80
2019-06-26T06:25:04.157Z,33.80
2019-06-26T06:27:32.657Z,33.40
2019-06-26T06:30:01.131Z,33.30
2019-06-26T06:32:29.632Z,33.80
2019-06-26T06:34:58.170Z,33.10
2019-06-26T06:37:26.714Z,33.40
2019-06-26T06:39:55.233Z,34.00
2019-06-26T06:42:23.762Z,34.70
2019-06-26T06:44:52.284Z,33.90
2019-06-26T06:47:20.758Z,34.20
2019-06-26T06:49:49.195Z,33.60
2019-06-26T06:52:17.732Z,33.40
2019-06-26T06:54:46.176Z,34.30
2019-06-26T06:57:14.706Z,35.30
2019-06-26T06:59:43.240Z,35.90
2019-06-26T07:02:11.705Z,36.20
2019-06-26T07:04:40.222Z,36.30
2019-06-26T07:07:08.680Z,36.40
2019-06-26T07:09:37.149Z,36.40
2019-06-26T07:12:05.644Z,37.10
2019-06-26T07:14:34.124Z,36.90
2019-06-26T07:17:16.041Z,36.60
2019-06-26T07:19:32.746Z,36.50
2019-06-26T07:22:01.290Z,36.60
2019-06-26T07:24:29.764Z,37.60
2019-06-26T07:26:58.281Z,36.90
2019-06-26T07:29:26.754Z,36.80
2019-06-26T07:31:55.289Z,37.50
2019-06-26T07:34:23.918Z,38.50
2019-06-26T07:36:52.374Z,38.50
2019-06-26T07:39:20.816Z,38.10
2019-06-26T07:41:49.276Z,37.20
2019-06-26T07:44:17.983Z,38.30
2019-06-26T07:46:46.608Z,37.50
2019-06-26T07:49:15.199Z,37.20
2019-06-26T07:51:43.730Z,38.20
2019-06-26T07:54:12.330Z,38.10
2019-06-26T07:56:40.806Z,38.10
2019-06-26T07:59:09.272Z,37.70
2019-06-26T08:01:37.751Z,38.40
2019-06-26T08:04:06.194Z,38.70
2019-06-26T08:06:34.662Z,39.10
2019-06-26T08:09:04.093Z,38.70
2019-06-26T08:11:32.733Z,38.60
2019-06-26T08:14:01.262Z,40.20
2019-06-26T08:16:29.943Z,39.90
2019-06-26T08:18:58.522Z,39.50
2019-06-26T08:21:27.091Z,39.40
2019-06-26T08:23:55.688Z,39.20
2019-06-26T08:26:24.304Z,40.40
2019-06-26T08:28:52.869Z,41.20
2019-06-26T08:31:21.483Z,40.70
2019-06-26T08:33:50.033Z,41.20
2019-06-26T08:36:18.940Z,41.20
2019-06-26T08:38:47.508Z,40.30
2019-06-26T08:41:16.084Z,40.00
2019-06-26T08:43:44.642Z,40.50
2019-06-26T08:46:13.211Z,41.10
2019-06-26T08:48:41.713Z,41.10
2019-06-26T08:51:10.362Z,40.60
2019-06-26T08:53:39.051Z,40.40
2019-06-26T08:56:07.739Z,40.50
2019-06-26T08:58:36.312Z,41.20
2019-06-26T09:01:05.053Z,41.10
2019-06-26T09:03:33.705Z,41.00
2019-06-26T09:06:02.303Z,41.90
2019-06-26T09:08:30.933Z,42.50
2019-06-26T09:10:59.569Z,43.70
2019-06-26T09:13:28.140Z,43.80
2019-06-26T09:15:56.689Z,43.70
2019-06-26T09:18:35.394Z,44.00
2019-06-26T09:20:55.479Z,44.10
2019-06-26T09:23:24.056Z,43.80
2019-06-26T09:25:52.642Z,44.00
2019-06-26T09:28:21.207Z,44.10
2019-06-26T09:30:49.913Z,43.50
2019-06-26T09:33:18.553Z,43.70
2019-06-26T09:35:47.216Z,44.40
2019-06-26T09:38:15.784Z,44.20
2019-06-26T09:40:44.746Z,43.70
2019-06-26T09:43:13.394Z,43.60
2019-06-26T09:45:41.996Z,42.90
2019-06-26T09:48:10.560Z,43.00
2019-06-26T09:50:39.134Z,43.00
2019-06-26T09:53:07.812Z,43.20
2019-06-26T09:55:36.382Z,43.90
2019-06-26T09:58:05.042Z,44.30
2019-06-26T10:00:33.745Z,44.60
2019-06-26T10:03:02.308Z,44.60
2019-06-26T10:05:30.902Z,45.20
2019-06-26T10:07:59.517Z,45.30
2019-06-26T10:10:28.182Z,45.60
2019-06-26T10:12:56.776Z,44.40
2019-06-26T10:15:25.319Z,44.70
2019-06-26T10:17:53.916Z,42.30
2019-06-26T10:20:22.570Z,40.50
2019-06-26T10:22:51.176Z,42.30
2019-06-26T10:25:19.842Z,42.70
2019-06-26T10:27:48.500Z,40.60
2019-06-26T10:30:17.901Z,40.40
2019-06-26T10:32:46.471Z,41.40
2019-06-26T10:35:15.701Z,43.20
2019-06-26T10:37:44.371Z,43.70
2019-06-26T10:40:16.228Z,43.50
2019-06-26T10:42:43.218Z,44.00
2019-06-26T10:45:12.835Z,44.40
2019-06-26T10:47:41.464Z,44.30
2019-06-26T10:50:10.405Z,44.10
2019-06-26T10:52:38.986Z,44.60
2019-06-26T10:55:08.208Z,44.60
2019-06-26T10:57:36.847Z,44.60
2019-06-26T11:00:08.333Z,44.90
2019-06-26T11:02:36.907Z,45.50
2019-06-26T11:05:08.910Z,44.60
2019-06-26T11:07:37.662Z,44.50
2019-06-26T11:10:07.995Z,44.30
2019-06-26T11:12:36.590Z,44.20
2019-06-26T11:15:08.369Z,43.20
2019-06-26T11:17:37.013Z,43.50
2019-06-26T11:20:09.233Z,43.50
2019-06-26T11:22:37.897Z,42.40
2019-06-26T11:25:09.574Z,42.00
2019-06-26T11:27:38.210Z,41.80
2019-06-26T11:30:11.384Z,41.40
2019-06-26T11:32:39.967Z,43.30
2019-06-26T11:35:09.075Z,43.50
2019-06-26T11:37:37.751Z,43.00
2019-06-26T11:40:07.306Z,42.20
2019-06-26T11:42:35.960Z,43.10
2019-06-26T11:45:07.337Z,42.80
2019-06-26T11:47:36.036Z,43.30
2019-06-26T11:50:08.452Z,43.20
2019-06-26T11:52:37.214Z,43.20
2019-06-26T11:55:08.746Z,43.50
2019-06-26T11:57:37.356Z,43.50
2019-06-26T12:00:19.837Z,43.30
2019-06-26T12:02:48.405Z,43.50
2019-06-26T12:05:17.316Z,43.10
2019-06-26T12:07:45.937Z,43.60
2019-06-26T12:10:15.346Z,43.70
2019-06-26T12:12:44.145Z,43.30
2019-06-26T12:15:14.437Z,43.20
2019-06-26T12:17:43.110Z,42.80
2019-06-26T12:20:18.697Z,42.50
2019-06-26T12:22:42.163Z,41.80
2019-06-26T12:25:10.810Z,41.30
2019-06-26T12:27:39.442Z,42.20
2019-06-26T12:30:09.356Z,42.30
2019-06-26T12:32:42.127Z,42.80
2019-06-26T12:35:08.413Z,43.30
2019-06-26T12:37:38.307Z,43.20
2019-06-26T12:40:08.115Z,43.10
2019-06-26T12:42:36.650Z,42.70
2019-06-26T12:45:06.982Z,42.70
2019-06-26T12:47:35.824Z,42.60
2019-06-26T12:50:09.004Z,42.30
2019-06-26T12:52:38.582Z,42.30
2019-06-26T12:55:07.434Z,42.80
2019-06-26T12:57:36.090Z,42.80
2019-06-26T13:00:07.887Z,42.40
2019-06-26T13:02:36.392Z,42.40
2019-06-26T13:05:06.868Z,42.50
2019-06-26T13:07:35.435Z,42.10
2019-06-26T13:10:07.667Z,41.40
2019-06-26T13:12:36.813Z,41.70
2019-06-26T13:15:08.404Z,42.00
2019-06-26T13:17:37.016Z,41.90
2019-06-26T13:20:09.989Z,42.00
2019-06-26T13:22:37.731Z,42.00
2019-06-26T13:25:08.011Z,41.80
2019-06-26T13:27:36.564Z,41.70
2019-06-26T13:30:08.681Z,41.70
2019-06-26T13:32:37.249Z,42.00
2019-06-26T13:35:06.757Z,42.10
2019-06-26T13:37:35.400Z,41.40
2019-06-26T13:40:05.495Z,41.70
2019-06-26T13:42:34.079Z,41.50
2019-06-26T13:45:03.023Z,40.90
2019-06-26T13:47:31.686Z,41.20
2019-06-26T13:50:00.255Z,41.10
2019-06-26T13:52:28.830Z,40.80
2019-06-26T13:54:57.553Z,40.90
2019-06-26T13:57:26.166Z,40.90
2019-06-26T13:59:54.738Z,41.00
2019-06-26T14:02:23.329Z,40.90
2019-06-26T14:04:51.873Z,41.10
2019-06-26T14:07:20.464Z,41.00
2019-06-26T14:09:49.048Z,41.00
2019-06-26T14:12:19.257Z,40.70
2019-06-26T14:14:57.549Z,40.90
2019-06-26T14:17:18.172Z,41.00
2019-06-26T14:19:46.678Z,41.00
2019-06-26T14:22:15.258Z,40.60
2019-06-26T14:24:43.844Z,40.30
2019-06-26T14:27:12.442Z,40.00
2019-06-26T14:29:41.005Z,39.80
2019-06-26T14:32:09.590Z,39.90
2019-06-26T14:34:38.194Z,40.00
2019-06-26T14:37:06.825Z,39.70
2019-06-26T14:39:35.459Z,39.40
2019-06-26T14:42:04.167Z,39.20
2019-06-26T14:44:32.761Z,39.00
2019-06-26T14:47:01.373Z,39.10
2019-06-26T14:49:29.939Z,39.40
2019-06-26T14:51:58.511Z,38.80
2019-06-26T14:54:27.089Z,39.40
2019-06-26T14:56:55.670Z,39.60
2019-06-26T14:59:24.466Z,39.40
2019-06-26T15:01:53.029Z,39.20
2019-06-26T15:04:21.589Z,38.90
2019-06-26T15:06:50.161Z,39.30
2019-06-26T15:09:18.717Z,39.20
2019-06-26T15:11:47.332Z,39.20
2019-06-26T15:14:15.900Z,39.40
2019-06-26T15:16:44.491Z,39.20
2019-06-26T15:19:13.195Z,39.00
2019-06-26T15:21:48.635Z,39.10
2019-06-26T15:24:12.115Z,38.80
2019-06-26T15:26:40.692Z,38.40
2019-06-26T15:29:09.307Z,38.30
2019-06-26T15:31:37.890Z,38.00
2019-06-26T15:34:06.508Z,38.10
2019-06-26T15:36:35.076Z,38.00
2019-06-26T15:39:04.725Z,37.90
2019-06-26T15:41:33.297Z,38.00
2019-06-26T15:44:01.897Z,38.00
2019-06-26T15:46:30.463Z,37.70
2019-06-26T15:48:59.056Z,37.70
2019-06-26T15:51:27.643Z,37.80
2019-06-26T15:53:59.756Z,37.70
2019-06-26T15:56:26.517Z,38.00
2019-06-26T15:58:55.047Z,37.80
2019-06-26T16:01:23.645Z,37.60
2019-06-26T16:03:52.304Z,37.30
2019-06-26T16:06:20.881Z,37.10
2019-06-26T16:08:49.458Z,37.00
2019-06-26T16:11:18.057Z,36.60
2019-06-26T16:13:46.633Z,36.70
2019-06-26T16:16:15.293Z,36.70
2019-06-26T16:18:45.582Z,36.60
2019-06-26T16:21:14.257Z,36.60
2019-06-26T16:23:42.843Z,36.50
2019-06-26T16:26:11.436Z,36.30
2019-06-26T16:28:40.017Z,36.20
2019-06-26T16:31:08.774Z,36.00
2019-06-26T16:33:37.415Z,35.70
2019-06-26T16:36:06.071Z,35.70
2019-06-26T16:38:34.647Z,35.60
2019-06-26T16:41:03.235Z,35.60
2019-06-26T16:43:31.972Z,35.70
2019-06-26T16:46:00.618Z,35.60
2019-06-26T16:48:29.242Z,35.60
2019-06-26T16:50:57.841Z,35.40
2019-06-26T16:53:26.480Z,35.20
2019-06-26T16:55:55.105Z,35.20
2019-06-26T16:58:23.720Z,35.40
2019-06-26T17:00:52.372Z,35.30
2019-06-26T17:03:21.042Z,35.30
2019-06-26T17:05:49.608Z,35.10
2019-06-26T17:08:18.190Z,35.00
2019-06-26T17:10:46.809Z,34.90
2019-06-26T17:13:15.521Z,34.60
2019-06-26T17:15:44.191Z,34.60
2019-06-26T17:18:12.860Z,34.40
2019-06-26T17:20:41.684Z,34.40
2019-06-26T17:23:10.370Z,34.60
2019-06-26T17:25:38.971Z,34.40
2019-06-26T17:28:07.574Z,34.20
2019-06-26T17:30:36.245Z,34.10
2019-06-26T17:33:04.980Z,33.90
2019-06-26T17:35:33.734Z,33.90
2019-06-26T17:38:02.322Z,33.90
2019-06-26T17:40:30.918Z,33.70
2019-06-26T17:43:11.789Z,33.70
2019-06-26T17:45:29.821Z,33.60
2019-06-26T17:47:58.454Z,33.60
2019-06-26T17:50:27.115Z,33.60
2019-06-26T17:52:55.720Z,33.60
2019-06-26T17:55:24.301Z,33.40
2019-06-26T17:57:52.919Z,33.40
2019-06-26T18:00:27.380Z,33.20
2019-06-26T18:02:55.999Z,33.20
2019-06-26T18:05:24.610Z,33.10
2019-06-26T18:07:53.220Z,33.00
2019-06-26T18:10:21.996Z,32.90
2019-06-26T18:12:50.594Z,33.00
2019-06-26T18:15:19.362Z,32.90
2019-06-26T18:17:48.028Z,32.80
2019-06-26T18:20:16.704Z,32.70
2019-06-26T18:22:45.278Z,32.70
2019-06-26T18:25:16.676Z,32.50
2019-06-26T18:27:45.077Z,32.40
2019-06-26T18:30:14.238Z,32.40
2019-06-26T18:32:42.810Z,32.30
2019-06-26T18:35:11.580Z,32.20
2019-06-26T18:37:40.130Z,32.20
2019-06-26T18:40:09.982Z,32.20
2019-06-26T18:42:38.590Z,32.10
2019-06-26T18:45:07.507Z,31.90
2019-06-26T18:47:36.463Z,31.90
2019-06-26T18:50:07.987Z,31.90
2019-06-26T18:52:36.585Z,31.80
2019-06-26T18:55:08.130Z,31.70
2019-06-26T18:57:36.708Z,31.80
2019-06-26T19:00:08.177Z,31.60
2019-06-26T19:02:36.775Z,31.60
2019-06-26T19:05:08.802Z,31.50
2019-06-26T19:07:37.519Z,31.40
2019-06-26T19:10:09.111Z,31.40
2019-06-26T19:12:37.967Z,31.30
2019-06-26T19:15:08.101Z,31.20
2019-06-26T19:17:36.847Z,31.10
2019-06-26T19:20:06.683Z,31.00
2019-06-26T19:22:35.381Z,30.90
2019-06-26T19:25:05.987Z,30.90
2019-06-26T19:27:40.803Z,30.80
2019-06-26T19:30:11.556Z,30.80
2019-06-26T19:32:40.207Z,30.70
2019-06-26T19:35:18.604Z,30.60
2019-06-26T19:37:39.945Z,30.60
2019-06-26T19:40:09.181Z,30.50
2019-06-26T19:42:37.998Z,30.40
2019-06-26T19:45:10.157Z,30.30
2019-06-26T19:47:38.855Z,30.20
2019-06-26T19:50:08.377Z,30.10
2019-06-26T19:52:37.312Z,30.00
2019-06-26T19:55:06.236Z,30.00
2019-06-26T19:57:34.839Z,29.90
2019-06-26T20:00:05.889Z,29.70
2019-06-26T20:02:37.564Z,29.70
2019-06-26T20:05:09.634Z,29.60
2019-06-26T20:07:38.369Z,29.50
2019-06-26T20:10:07.674Z,29.50
2019-06-26T20:12:36.317Z,29.40
2019-06-26T20:15:06.765Z,29.40
2019-06-26T20:17:35.785Z,29.20
2019-06-26T20:20:08.290Z,29.20
2019-06-26T20:22:37.178Z,29.30
2019-06-26T20:25:29.164Z,29.10
2019-06-26T20:27:57.666Z,29.10
2019-06-26T20:30:29.393Z,29.10
2019-06-26T20:32:58.271Z,28.90
2019-06-26T20:35:26.986Z,28.80
2019-06-26T20:37:57.458Z,28.80
2019-06-26T20:40:26.089Z,28.60
2019-06-26T20:42:54.778Z,28.60
2019-06-26T20:45:23.368Z,28.50
2019-06-26T20:47:52.027Z,28.50
2019-06-26T20:50:20.719Z,28.60
2019-06-26T20:52:49.397Z,28.50
2019-06-26T20:55:17.997Z,28.40
2019-06-26T20:57:46.569Z,28.30
2019-06-26T21:00:15.353Z,28.30
2019-06-26T21:02:43.993Z,28.10
2019-06-26T21:05:12.736Z,28.10
2019-06-26T21:07:41.331Z,28.10
2019-06-26T21:10:10.631Z,28.00
2019-06-26T21:12:39.326Z,28.00
2019-06-26T21:15:08.208Z,28.00
2019-06-26T21:17:37.006Z,27.80
2019-06-26T21:20:08.756Z,27.70
2019-06-26T21:22:37.330Z,27.60
2019-06-26T21:25:18.487Z,27.50
2019-06-26T21:27:41.950Z,27.50
2019-06-26T21:30:10.868Z,27.40
2019-06-26T21:32:39.567Z,27.40
2019-06-26T21:35:08.293Z,27.30
2019-06-26T21:37:36.939Z,27.40
2019-06-26T21:40:06.044Z,27.30
2019-06-26T21:42:34.603Z,27.30
2019-06-26T21:45:03.502Z,27.30
2019-06-26T21:47:32.086Z,27.20
2019-06-26T21:50:00.674Z,27.20
2019-06-26T21:52:29.243Z,27.10
2019-06-26T21:54:57.838Z,26.90
2019-06-26T21:57:26.425Z,26.80
2019-06-26T21:59:55.024Z,26.70
2019-06-26T22:02:23.744Z,26.70
2019-06-26T22:04:52.390Z,26.50
2019-06-26T22:07:21.130Z,26.50
2019-06-26T22:09:49.806Z,26.60
2019-06-26T22:12:18.459Z,26.60
2019-06-26T22:14:47.047Z,26.50
2019-06-26T22:17:15.652Z,26.30
2019-06-26T22:19:44.218Z,26.30
2019-06-26T22:22:12.789Z,26.30
2019-06-26T22:24:41.399Z,26.20
2019-06-26T22:27:10.126Z,26.10
2019-06-26T22:29:38.689Z,26.00
2019-06-26T22:32:07.295Z,26.20
2019-06-26T22:34:35.860Z,26.00
2019-06-26T22:37:04.639Z,25.90
2019-06-26T22:39:33.260Z,25.90
2019-06-26T22:42:01.825Z,25.80
2019-06-26T22:44:30.387Z,25.70
2019-06-26T22:46:59.099Z,25.70
2019-06-26T22:49:27.685Z,25.60
2019-06-26T22:51:56.271Z,25.60
2019-06-26T22:54:25.015Z,25.50
2019-06-26T22:56:53.585Z,25.50
2019-06-26T22:59:22.185Z,25.40
2019-06-26T23:01:50.828Z,25.30
2019-06-26T23:04:19.389Z,25.30
2019-06-26T23:06:47.939Z,25.30
2019-06-26T23:09:16.539Z,25.30
2019-06-26T23:11:45.161Z,25.00
2019-06-26T23:14:13.719Z,25.10
2019-06-26T23:16:42.285Z,25.10
2019-06-26T23:19:10.865Z,25.20
2019-06-26T23:21:39.451Z,25.00
2019-06-26T23:24:08.040Z,25.10
2019-06-26T23:26:36.599Z,25.10
2019-06-26T23:29:05.201Z,25.10
2019-06-26T23:31:34.008Z,25.00
2019-06-26T23:34:02.662Z,25.00
2019-06-26T23:36:31.311Z,24.80
2019-06-26T23:38:59.918Z,24.80
2019-06-26T23:41:28.497Z,24.80
2019-06-26T23:43:57.093Z,24.70
2019-06-26T23:46:25.687Z,24.60
2019-06-26T23:48:54.287Z,24.60
2019-06-26T23:51:22.874Z,24.60
2019-06-26T23:53:51.511Z,24.60
2019-06-26T23:56:20.148Z,24.70
2019-06-26T23:58:48.810Z,24.70
